Date,TemperatureHighF,TemperatureAvgF,TemperatureLowF,DewpointHighF,DewpointAvgF,DewpointLowF,HumidityHigh,HumidityAvg,HumidityLow,PressureMaxIn,PressureMinIn,WindSpeedMaxMPH,WindSpeedAvgMPH,GustSpeedMaxMPH,PrecipitationSumIn
2013-1-1,30.0,22.6,10.0,30.0,22.5,9.0,100,100,92,29.95,29.78,6,0,7,0.01
2013-1-2,24.0,11.7,1.0,18.0,8.2,0.0,100,88,48,30.00,29.84,4,0,4,0.00
2013-1-3,30.0,20.4,8.0,28.0,19.2,6.9,100,95,80,30.11,29.83,12,0,12,0.01
2013-1-4,31.0,21.3,11.0,24.3,19.2,11.0,100,92,73,30.10,29.95,12,1,15,0.00
2013-1-5,39.0,27.4,16.0,33.0,25.5,15.0,100,93,66,30.11,29.91,9,1,11,0.09
2013-1-6,35.0,28.9,22.0,35.0,28.8,22.0,100,100,97,30.16,29.82,9,1,11,0.04
2013-1-7,39.0,25.4,11.0,29.5,23.4,11.0,100,93,69,30.22,30.00,12,1,13,0.05
2013-1-8,47.0,32.8,21.0,33.6,29.2,21.0,100,88,57,30.05,29.87,8,1,9,0.08
2013-1-9,49.0,39.8,28.0,43.0,37.1,28.0,100,91,69,30.32,29.97,11,1,11,0.04
2013-1-10,40.0,30.7,23.0,34.0,28.7,23.0,100,93,75,30.33,30.07,12,1,12,0.00
2013-1-11,59.0,54.3,51.0,57.4,52.9,51.0,100,95,80,29.73,29.58,11,2,14,0.74
2013-1-12,65.0,54.5,47.0,59.0,53.6,47.0,100,97,77,29.76,29.57,12,2,12,1.73
2013-1-13,54.0,35.9,19.0,54.0,35.9,19.0,100,100,100,30.04,29.53,13,2,14,1.49
2013-1-14,22.0,17.8,13.0,21.0,17.8,13.0,100,100,97,30.25,30.03,10,0,10,0.00
2013-1-15,29.0,22.6,16.0,26.0,21.6,16.0,100,96,81,30.20,29.91,6,0,7,0.00
2013-1-16,35.0,27.0,18.0,29.8,24.2,18.0,100,90,67,29.91,29.69,9,1,10,0.00
2013-1-17,39.0,29.4,17.0,34.8,26.9,17.0,100,91,66,30.22,29.89,14,1,14,0.00
2013-1-18,41.0,27.2,15.0,26.0,19.7,15.0,100,77,43,30.27,29.97,15,3,16,0.00
2013-1-19,51.0,46.1,38.0,39.1,34.6,27.3,86,65,55,29.95,29.64,6,5,6,0.00
2013-1-20,26.0,20.4,20.0,17.2,16.0,13.7,86,83,64,30.03,29.96,7,0,8,0.00
2013-1-21,19.0,12.9,6.0,16.5,10.2,2.1,100,89,74,30.04,29.78,13,2,14,0.00
2013-1-22,16.0,7.2,1.0,7.6,3.8,0.0,100,87,61,30.11,29.33,9,1,10,0.00
2013-1-23,20.0,14.8,5.0,16.8,9.7,5.0,100,81,61,29.49,29.26,12,0,13,0.00
2013-1-24,21.0,16.4,9.0,16.3,11.4,4.7,100,82,51,29.68,29.32,12,2,14,0.00
2013-1-25,25.0,20.0,16.0,22.8,17.4,11.2,100,90,72,29.55,29.14,13,2,13,0.03
2013-1-26,31.0,20.2,12.0,23.0,18.0,12.0,100,92,68,29.58,29.25,6,0,6,0.00
2013-1-27,37.0,25.5,14.0,37.0,24.3,14.0,100,96,80,29.56,29.23,13,2,13,0.26
2013-1-28,52.0,47.2,37.0,52.0,47.2,37.0,100,100,100,29.27,29.15,14,3,16,0.15
2013-1-29,63.0,57.3,52.0,62.4,57.3,52.0,100,100,97,29.18,28.62,20,5,20,0.01
2013-1-30,64.0,44.8,25.0,63.0,44.7,25.0,100,100,96,28.83,28.46,23,3,25,0.87
2013-1-31,26.0,19.6,7.0,25.0,18.9,7.0,100,97,86,29.26,28.83,15,2,19,0.01